Time;durP1;ratioP1;P1;durP2;ratioP2;P2;SDS_P1;SDS_P2;PMS_P1;PMS_P2;Temp;Humidity;BMP_temperature;BMP_pressure;BME280_temperature;BME280_humidity;BME280_pressure;Samples;Min_cycle;Max_cycle;Signal;HPM_P1;HPM_P2
2023/06/13 00:01:14;;;;;;;20.63;16.90;;;18.00;99.90;;;;;;5050192;28;20049;-56
2023/06/13 00:03:41;;;;;;;23.10;17.38;;;18.00;99.90;;;;;;5049110;28;20124;-59
2023/06/13 00:06:08;;;;;;;22.67;17.20;;;18.00;99.90;;;;;;5050274;28;20420;-58
2023/06/13 00:08:35;;;;;;;28.08;16.67;;;17.90;99.90;;;;;;5049478;28;20518;-58
2023/06/13 00:11:02;;;;;;;25.48;18.08;;;17.90;99.90;;;;;;5047188;28;20139;-58
2023/06/13 00:13:29;;;;;;;25.42;18.70;;;17.80;99.90;;;;;;5049598;28;20093;-58
2023/06/13 00:15:57;;;;;;;24.45;19.55;;;17.70;99.90;;;;;;5049586;28;20147;-58
2023/06/13 00:18:23;;;;;;;25.25;20.17;;;17.80;99.90;;;;;;5049421;28;20045;-59
2023/06/13 00:20:54;;;;;;;28.65;20.33;;;17.70;99.90;;;;;;5048947;28;20040;-56
2023/06/13 00:23:22;;;;;;;26.15;19.85;;;17.70;99.90;;;;;;5049617;28;20053;-56
2023/06/13 00:25:48;;;;;;;27.30;20.20;;;17.70;99.90;;;;;;5049388;28;20053;-58
2023/06/13 00:28:15;;;;;;;28.15;20.25;;;17.60;99.90;;;;;;5049592;28;20528;-58
2023/06/13 00:30:43;;;;;;;28.58;20.52;;;17.60;99.90;;;;;;5049132;28;20103;-57
2023/06/13 00:33:17;;;;;;;26.35;19.00;;;17.60;99.90;;;;;;5049557;28;20084;-58
2023/06/13 00:35:44;;;;;;;25.05;19.25;;;17.50;99.90;;;;;;5049005;28;20049;-58
2023/06/13 00:38:12;;;;;;;24.77;19.65;;;17.40;99.90;;;;;;5049134;28;20041;-58
2023/06/13 00:40:39;;;;;;;25.88;19.33;;;17.40;99.90;;;;;;5043015;28;20098;-59
2023/06/13 00:43:06;;;;;;;23.77;20.08;;;17.30;99.90;;;;;;5049024;28;20420;-58
2023/06/13 00:45:34;;;;;;;25.27;19.92;;;17.20;99.90;;;;;;5048896;28;20045;-58
2023/06/13 00:48:05;;;;;;;25.00;20.50;;;17.20;99.90;;;;;;5049045;28;20055;-58
2023/06/13 00:50:40;;;;;;;27.36;20.58;;;17.10;99.90;;;;;;4987195;28;10001008;-58
2023/06/13 00:53:09;;;;;;;23.65;19.75;;;17.20;99.90;;;;;;5024351;28;20260;-59
2023/06/13 00:55:36;;;;;;;24.95;19.40;;;17.10;99.90;;;;;;5048120;28;20049;-60
2023/06/13 00:58:06;;;;;;;27.75;19.80;;;17.00;99.90;;;;;;5048977;28;20051;-58
2023/06/13 01:00:37;;;;;;;21.73;18.33;;;17.00;99.90;;;;;;5030062;28;20059;-59
2023/06/13 01:03:09;;;;;;;23.90;18.63;;;17.00;99.90;;;;;;5048687;28;20051;-58
2023/06/13 01:05:37;;;;;;;24.15;18.35;;;16.90;99.90;;;;;;5047420;28;20061;-59
2023/06/13 01:08:06;;;;;;;24.52;19.05;;;16.90;99.90;;;;;;5049163;28;20151;-57
2023/06/13 01:10:33;;;;;;;28.13;20.38;;;16.90;99.90;;;;;;5046751;28;20521;-58
2023/06/13 01:13:09;;;;;;;24.42;19.25;;;16.90;99.90;;;;;;5050195;28;20079;-58
2023/06/13 01:15:57;;;;;;;27.08;19.88;;;16.90;99.90;;;;;;5033070;28;20044;-58
2023/06/13 01:18:24;;;;;;;27.27;18.92;;;16.80;99.90;;;;;;5028284;28;20048;-56
2023/06/13 01:20:56;;;;;;;26.55;19.55;;;16.80;99.90;;;;;;5046979;28;20055;-58
2023/06/13 01:23:39;;;;;;;23.95;18.73;;;16.80;99.90;;;;;;5047244;28;20045;-58
2023/06/13 01:26:13;;;;;;;25.77;19.40;;;16.70;99.90;;;;;;5043524;28;20080;-58
2023/06/13 01:28:43;;;;;;;24.13;18.83;;;16.80;99.90;;;;;;5020745;28;20095;-57
2023/06/13 01:31:15;;;;;;;24.33;18.88;;;16.80;99.90;;;;;;5047085;28;20419;-57
2023/06/13 01:33:42;;;;;;;24.75;19.05;;;16.80;99.90;;;;;;5046834;28;20095;-57
2023/06/13 01:36:09;;;;;;;27.15;20.20;;;16.80;99.90;;;;;;5048037;28;20055;-59
2023/06/13 01:38:36;;;;;;;23.20;17.90;;;16.80;99.90;;;;;;5030330;28;20049;-59
2023/06/13 01:41:03;;;;;;;21.52;17.75;;;16.80;99.90;;;;;;5046643;28;20044;-58
2023/06/13 01:43:30;;;;;;;20.95;15.90;;;16.70;99.90;;;;;;5046717;28;20115;-58
2023/06/13 01:46:07;;;;;;;20.48;15.73;;;16.70;99.90;;;;;;5047455;28;20044;-59
2023/06/13 01:48:41;;;;;;;36.08;18.23;;;16.60;99.90;;;;;;5048321;28;20141;-59
2023/06/13 01:52:01;;;;;;;23.13;17.45;;;16.50;99.90;;;;;;5029774;28;20037;-62
2023/06/13 01:54:28;;;;;;;24.17;17.00;;;16.50;99.90;;;;;;4991092;28;20045;-60
2023/06/13 01:56:56;;;;;;;21.67;16.55;;;16.40;99.90;;;;;;5007538;28;20052;-58
2023/06/13 01:59:25;;;;;;;22.52;17.73;;;16.40;99.90;;;;;;5039948;28;20143;-58
2023/06/13 02:01:52;;;;;;;19.38;17.23;;;16.30;99.90;;;;;;5022498;28;20068;-59
2023/06/13 02:04:19;;;;;;;26.65;17.23;;;16.20;99.90;;;;;;5044337;28;20569;-59
2023/06/13 02:06:46;;;;;;;22.10;17.33;;;16.10;99.90;;;;;;5038746;28;20050;-59
2023/06/13 02:09:13;;;;;;;21.80;17.15;;;16.10;99.90;;;;;;5040636;28;20067;-59
2023/06/13 02:11:40;;;;;;;19.88;15.70;;;16.10;99.90;;;;;;5040325;28;20040;-59
2023/06/13 02:14:07;;;;;;;24.55;16.65;;;16.00;99.90;;;;;;5043115;28;20041;-59
2023/06/13 02:16:34;;;;;;;21.00;15.18;;;16.00;99.90;;;;;;5044368;28;20099;-59
2023/06/13 02:19:01;;;;;;;20.98;16.15;;;15.90;99.90;;;;;;5047502;28;20040;-59
2023/06/13 02:21:29;;;;;;;18.40;15.60;;;15.80;99.90;;;;;;5047090;28;20569;-58
2023/06/13 02:23:56;;;;;;;20.30;16.35;;;15.80;99.90;;;;;;5047475;28;20059;-58
2023/06/13 02:26:23;;;;;;;19.23;15.73;;;15.80;99.90;;;;;;5047726;28;20057;-60
2023/06/13 02:28:50;;;;;;;23.27;17.10;;;15.80;99.90;;;;;;5043374;28;20073;-58
2023/06/13 02:31:17;;;;;;;21.10;17.10;;;15.80;99.90;;;;;;5047895;28;20053;-58
2023/06/13 02:33:44;;;;;;;19.77;15.35;;;15.80;99.90;;;;;;5046651;28;20041;-59
2023/06/13 02:36:12;;;;;;;17.88;15.23;;;15.80;99.90;;;;;;5047585;28;20056;-57
2023/06/13 02:38:38;;;;;;;18.88;15.20;;;15.70;99.90;;;;;;5047329;28;20515;-59
2023/06/13 02:41:05;;;;;;;21.75;14.77;;;15.60;99.90;;;;;;5046877;28;20056;-58
2023/06/13 02:43:32;;;;;;;23.92;15.95;;;15.50;99.90;;;;;;5047115;28;20055;-58
2023/06/13 02:45:59;;;;;;;20.67;15.48;;;15.50;99.90;;;;;;5047097;28;20045;-57
2023/06/13 02:48:26;;;;;;;18.60;14.80;;;15.50;99.90;;;;;;5047399;28;20048;-58
2023/06/13 02:50:53;;;;;;;22.33;15.32;;;15.50;99.90;;;;;;5046509;28;20496;-56
2023/06/13 02:53:20;;;;;;;21.25;15.40;;;15.50;99.90;;;;;;5046244;28;20595;-56
2023/06/13 02:55:48;;;;;;;18.88;15.38;;;15.50;99.90;;;;;;5046647;28;20048;-57
2023/06/13 02:58:15;;;;;;;17.60;14.90;;;15.50;99.90;;;;;;5047556;28;20506;-56
2023/06/13 03:00:42;;;;;;;20.08;14.65;;;15.40;99.90;;;;;;5046817;28;20072;-58
2023/06/13 03:03:10;;;;;;;18.45;14.57;;;15.40;99.90;;;;;;5047276;28;20049;-57
2023/06/13 03:05:38;;;;;;;19.13;15.13;;;15.30;99.90;;;;;;5046460;28;20049;-58
2023/06/13 03:08:04;;;;;;;24.55;14.55;;;15.20;99.90;;;;;;5047468;28;20040;-57
2023/06/13 03:10:32;;;;;;;21.58;15.35;;;15.20;99.90;;;;;;5046410;28;20052;-58
2023/06/13 03:12:59;;;;;;;18.95;15.57;;;15.20;99.90;;;;;;5047158;28;20179;-56
2023/06/13 03:15:27;;;;;;;22.55;15.10;;;15.20;99.90;;;;;;5046820;28;20458;-59
2023/06/13 03:17:54;;;;;;;18.98;15.43;;;15.30;99.90;;;;;;5047518;28;20095;-58
2023/06/13 03:20:21;;;;;;;18.75;14.88;;;15.30;99.90;;;;;;5046804;28;20128;-57
2023/06/13 03:22:53;;;;;;;18.33;15.40;;;15.30;99.90;;;;;;5047303;28;20083;-56
2023/06/13 03:25:20;;;;;;;21.77;14.32;;;15.30;99.90;;;;;;5046942;28;20056;-57
2023/06/13 03:27:47;;;;;;;19.90;16.10;;;15.30;99.90;;;;;;5047343;28;20055;-58
2023/06/13 03:30:17;;;;;;;21.05;12.80;;;15.40;99.90;;;;;;5046703;28;20041;-56
2023/06/13 03:32:44;;;;;;;14.82;12.35;;;15.30;99.90;;;;;;5036094;28;20139;-57
2023/06/13 03:35:11;;;;;;;18.00;13.13;;;15.10;99.90;;;;;;5046902;28;20044;-57
2023/06/13 03:37:38;;;;;;;13.63;11.88;;;15.10;99.90;;;;;;5046799;28;20051;-57
2023/06/13 03:40:06;;;;;;;15.10;12.57;;;15.10;99.90;;;;;;5047195;28;20048;-56
2023/06/13 03:42:33;;;;;;;19.13;13.80;;;15.00;99.90;;;;;;5045825;28;20092;-56
2023/06/13 03:44:59;;;;;;;15.05;11.73;;;15.00;99.90;;;;;;5046701;28;20049;-56
2023/06/13 03:47:26;;;;;;;16.05;12.20;;;15.00;99.90;;;;;;5046793;28;20049;-57
2023/06/13 03:49:53;;;;;;;17.38;13.23;;;15.00;99.90;;;;;;5047202;28;20120;-57
2023/06/13 03:52:20;;;;;;;20.70;13.55;;;15.00;99.90;;;;;;5046491;28;20049;-57
2023/06/13 03:54:47;;;;;;;20.15;13.07;;;15.00;99.90;;;;;;5032347;28;20045;-57
2023/06/13 03:57:14;;;;;;;19.48;12.02;;;15.00;99.90;;;;;;5047362;28;20514;-57
2023/06/13 03:59:42;;;;;;;16.77;12.52;;;14.90;99.90;;;;;;5047674;28;20106;-58
2023/06/13 04:02:10;;;;;;;17.13;12.38;;;14.80;99.90;;;;;;5045986;28;20045;-57
2023/06/13 04:04:42;;;;;;;13.38;11.30;;;14.80;99.90;;;;;;5047321;28;20045;-58
2023/06/13 04:07:09;;;;;;;19.25;12.93;;;14.80;99.90;;;;;;5050245;28;20049;-56
2023/06/13 04:09:36;;;;;;;32.90;13.75;;;14.80;99.90;;;;;;5050650;28;20056;-58
2023/06/13 04:12:03;;;;;;;16.92;11.63;;;14.90;99.90;;;;;;5043029;28;20056;-57
2023/06/13 04:14:30;;;;;;;16.92;12.40;;;14.90;99.90;;;;;;5025126;28;20094;-58
2023/06/13 04:16:59;;;;;;;15.23;12.35;;;15.00;99.90;;;;;;5049612;28;20117;-58
2023/06/13 04:19:26;;;;;;;18.02;13.13;;;15.10;99.90;;;;;;5050318;28;20128;-57
2023/06/13 04:21:53;;;;;;;14.45;10.50;;;15.10;99.90;;;;;;5049813;28;20052;-57
2023/06/13 04:24:21;;;;;;;16.02;10.90;;;15.10;99.90;;;;;;5050157;28;20147;-57
2023/06/13 04:26:48;;;;;;;18.17;11.18;;;14.90;99.90;;;;;;5048709;28;20057;-57
2023/06/13 04:29:17;;;;;;;13.95;11.68;;;14.90;99.90;;;;;;5049994;28;20426;-58
2023/06/13 04:31:44;;;;;;;15.48;11.85;;;14.90;99.90;;;;;;5048432;28;20045;-58
2023/06/13 04:34:11;;;;;;;18.67;11.57;;;14.90;99.90;;;;;;5049843;28;20044;-58
2023/06/13 04:36:41;;;;;;;20.40;11.50;;;14.90;99.90;;;;;;5031680;28;20399;-58
2023/06/13 04:39:08;;;;;;;14.07;11.38;;;14.90;99.90;;;;;;5049679;28;20055;-58
2023/06/13 04:41:37;;;;;;;13.80;11.60;;;14.90;99.90;;;;;;5049440;28;20122;-56
2023/06/13 04:44:10;;;;;;;18.35;11.68;;;14.90;99.90;;;;;;5047894;28;20064;-58
2023/06/13 04:46:41;;;;;;;21.08;11.88;;;15.00;99.90;;;;;;5047592;28;20041;-58
2023/06/13 04:49:09;;;;;;;14.98;10.88;;;15.00;99.90;;;;;;5049573;28;20415;-57
2023/06/13 04:51:36;;;;;;;14.50;11.30;;;15.10;99.90;;;;;;5049239;28;20041;-56
2023/06/13 04:54:02;;;;;;;15.02;10.52;;;15.10;99.90;;;;;;5048891;28;20049;-59
2023/06/13 04:56:29;;;;;;;25.63;12.30;;;15.10;99.90;;;;;;5049162;28;20127;-56
2023/06/13 04:58:56;;;;;;;14.50;11.27;;;15.20;99.90;;;;;;5048445;28;20198;-58
2023/06/13 05:01:32;;;;;;;17.75;11.43;;;15.20;99.90;;;;;;5049219;28;20049;-55
2023/06/13 05:03:59;;;;;;;14.45;11.18;;;15.20;99.90;;;;;;5044960;28;20036;-60
2023/06/13 05:06:29;;;;;;;16.25;11.88;;;15.20;99.90;;;;;;5049448;28;20052;-58
2023/06/13 05:08:57;;;;;;;15.02;9.60;;;15.20;99.90;;;;;;5048567;28;20503;-59
2023/06/13 05:11:23;;;;;;;17.73;9.73;;;15.30;99.90;;;;;;5047343;28;20048;-59
2023/06/13 05:13:50;;;;;;;14.07;9.80;;;15.40;99.90;;;;;;5048628;28;20439;-58
2023/06/13 05:16:18;;;;;;;17.75;10.07;;;15.50;99.90;;;;;;5048454;28;20044;-59
2023/06/13 05:18:46;;;;;;;14.55;9.85;;;15.60;99.90;;;;;;5048199;28;20064;-58
2023/06/13 05:21:16;;;;;;;13.27;8.88;;;15.70;99.90;;;;;;5031533;28;20125;-59
2023/06/13 05:23:44;;;;;;;17.10;8.77;;;15.90;99.90;;;;;;5048029;28;20053;-58
2023/06/13 05:26:11;;;;;;;16.75;9.05;;;15.90;99.90;;;;;;5049136;28;20045;-58
2023/06/13 05:28:39;;;;;;;16.00;8.25;;;15.90;99.90;;;;;;5047150;28;20680;-62
2023/06/13 05:31:06;;;;;;;16.45;9.18;;;16.00;99.90;;;;;;5048321;28;20045;-57
2023/06/13 05:33:33;;;;;;;13.57;9.57;;;16.00;99.90;;;;;;5048248;28;20052;-59
2023/06/13 05:36:00;;;;;;;12.80;8.85;;;16.10;99.90;;;;;;5048368;28;20044;-58
2023/06/13 05:38:27;;;;;;;14.40;8.73;;;16.10;99.90;;;;;;5048561;28;20103;-60
2023/06/13 05:40:54;;;;;;;20.25;9.02;;;16.20;99.90;;;;;;5048571;28;20052;-59
2023/06/13 05:43:22;;;;;;;12.23;8.23;;;16.30;99.90;;;;;;5047010;28;20098;-59
2023/06/13 05:45:49;;;;;;;14.75;9.65;;;16.30;99.90;;;;;;5042059;28;20056;-59
2023/06/13 05:48:16;;;;;;;13.23;8.95;;;16.40;99.90;;;;;;5046792;28;20068;-58
2023/06/13 05:50:45;;;;;;;12.70;8.98;;;16.50;99.90;;;;;;5047428;28;20599;-58
2023/06/13 05:53:12;;;;;;;15.52;10.35;;;16.60;99.90;;;;;;5047593;28;20049;-58
2023/06/13 05:55:38;;;;;;;18.30;9.55;;;16.60;99.90;;;;;;5040984;28;20041;-59
2023/06/13 05:58:05;;;;;;;12.50;8.48;;;16.60;99.90;;;;;;5037939;28;20174;-59
2023/06/13 06:00:32;;;;;;;15.63;9.20;;;16.70;99.90;;;;;;5043652;28;20083;-58
2023/06/13 06:03:04;;;;;;;17.48;9.25;;;16.70;99.90;;;;;;5043481;28;20424;-59
2023/06/13 06:05:32;;;;;;;21.38;9.73;;;16.80;99.90;;;;;;5045395;28;20049;-59
2023/06/13 06:07:59;;;;;;;17.45;9.55;;;16.80;99.90;;;;;;5047212;28;20072;-59
2023/06/13 06:10:26;;;;;;;22.98;10.75;;;16.90;99.90;;;;;;5046294;28;20045;-59
2023/06/13 06:12:53;;;;;;;17.20;10.20;;;16.90;99.90;;;;;;5046274;28;20546;-59
2023/06/13 06:15:20;;;;;;;16.33;9.73;;;16.90;99.90;;;;;;5046900;28;20052;-57
2023/06/13 06:17:47;;;;;;;22.35;9.90;;;17.00;99.90;;;;;;5047525;28;20282;-59
2023/06/13 06:20:14;;;;;;;18.13;10.10;;;17.00;99.90;;;;;;5043395;28;20092;-58
2023/06/13 06:22:41;;;;;;;16.90;9.63;;;17.10;99.90;;;;;;5041393;28;20076;-58
2023/06/13 06:25:12;;;;;;;19.23;10.07;;;17.20;99.90;;;;;;5045858;28;20045;-59
2023/06/13 06:27:41;;;;;;;18.60;10.23;;;17.20;99.90;;;;;;5033997;28;20055;-59
2023/06/13 06:30:09;;;;;;;20.77;9.80;;;17.30;99.90;;;;;;5044219;28;20045;-59
2023/06/13 06:32:36;;;;;;;20.63;10.07;;;17.40;99.90;;;;;;5043039;28;20055;-58
2023/06/13 06:35:05;;;;;;;17.02;9.70;;;17.40;99.90;;;;;;5041463;28;20041;-58
2023/06/13 06:37:32;;;;;;;18.30;11.18;;;17.50;99.90;;;;;;5042198;28;20068;-57
2023/06/13 06:40:00;;;;;;;17.33;10.40;;;17.50;99.90;;;;;;5047448;28;20037;-59
2023/06/13 06:42:27;;;;;;;18.23;9.68;;;17.60;99.90;;;;;;5041053;28;20053;-56
2023/06/13 06:44:54;;;;;;;18.00;10.95;;;17.70;99.90;;;;;;5046772;28;20343;-59
2023/06/13 06:47:21;;;;;;;21.73;10.77;;;17.70;99.90;;;;;;5046446;28;20073;-59
2023/06/13 06:49:48;;;;;;;18.50;10.65;;;17.70;99.90;;;;;;5046817;28;20619;-59
2023/06/13 06:52:14;;;;;;;16.20;9.75;;;17.80;99.90;;;;;;5046391;28;20136;-59
2023/06/13 06:54:41;;;;;;;22.75;9.98;;;17.80;99.90;;;;;;5046241;28;20106;-58
2023/06/13 06:57:08;;;;;;;17.33;10.00;;;17.80;99.90;;;;;;5045804;28;20056;-61
2023/06/13 06:59:35;;;;;;;14.82;10.68;;;17.90;99.90;;;;;;5046613;28;20120;-59
2023/06/13 07:02:03;;;;;;;16.45;10.05;;;18.00;99.90;;;;;;5042611;28;20150;-60
2023/06/13 07:04:30;;;;;;;22.33;10.38;;;18.10;99.90;;;;;;5044538;28;20049;-59
2023/06/13 07:06:57;;;;;;;18.17;10.82;;;18.10;99.90;;;;;;5045899;28;20041;-59
2023/06/13 07:09:24;;;;;;;16.73;10.95;;;18.10;99.90;;;;;;5046217;28;20056;-57
2023/06/13 07:11:53;;;;;;;21.95;10.95;;;18.20;99.90;;;;;;5045134;28;20067;-59
2023/06/13 07:14:20;;;;;;;15.25;10.52;;;18.20;99.90;;;;;;5046490;28;20056;-59
2023/06/13 07:16:47;;;;;;;25.30;11.85;;;18.30;99.90;;;;;;5040518;28;20045;-59
2023/06/13 07:19:14;;;;;;;19.40;11.35;;;18.40;99.90;;;;;;5042748;28;20500;-58
2023/06/13 07:21:41;;;;;;;21.05;10.65;;;18.40;99.90;;;;;;5035027;28;20038;-59
2023/06/13 07:24:08;;;;;;;19.65;11.82;;;18.40;99.90;;;;;;5046956;28;20041;-59
2023/06/13 07:26:35;;;;;;;16.30;10.80;;;18.40;99.90;;;;;;5047010;28;20056;-59
2023/06/13 07:29:02;;;;;;;17.08;10.52;;;18.50;99.90;;;;;;5046978;28;20280;-60
2023/06/13 07:31:30;;;;;;;20.35;11.02;;;18.60;99.90;;;;;;5044934;28;20132;-60
2023/06/13 07:33:56;;;;;;;20.58;10.48;;;18.60;99.90;;;;;;5046480;28;20044;-60
2023/06/13 07:36:23;;;;;;;27.75;12.52;;;18.70;99.90;;;;;;5046953;28;20049;-60
2023/06/13 07:38:51;;;;;;;22.52;10.95;;;18.80;99.90;;;;;;5047888;28;20123;-60
2023/06/13 07:41:18;;;;;;;26.80;11.30;;;18.90;99.90;;;;;;5050111;28;20045;-59
2023/06/13 07:43:45;;;;;;;18.65;10.23;;;19.00;99.90;;;;;;5049394;28;20153;-59
2023/06/13 07:46:11;;;;;;;22.02;11.55;;;19.10;99.90;;;;;;5048880;28;20048;-59
2023/06/13 07:48:38;;;;;;;19.80;11.63;;;19.20;99.90;;;;;;5044840;28;20045;-59
2023/06/13 07:51:05;;;;;;;22.48;12.60;;;19.20;99.90;;;;;;5048642;28;20063;-60
2023/06/13 07:53:32;;;;;;;23.15;10.98;;;19.30;99.90;;;;;;5045618;28;20463;-59
2023/06/13 07:55:59;;;;;;;19.30;9.98;;;19.30;99.90;;;;;;5048329;28;20045;-60
2023/06/13 07:58:26;;;;;;;18.50;11.43;;;19.30;99.90;;;;;;5030562;28;20041;-60
2023/06/13 08:00:53;;;;;;;28.33;12.13;;;19.40;99.90;;;;;;5014172;28;20427;-59
2023/06/13 08:03:19;;;;;;;27.90;11.57;;;19.50;99.90;;;;;;5047704;28;20052;-58
2023/06/13 08:05:51;;;;;;;20.60;10.68;;;19.60;99.90;;;;;;5046275;28;20059;-60
2023/06/13 08:08:18;;;;;;;18.50;11.07;;;19.70;99.90;;;;;;5049869;28;20044;-60
2023/06/13 08:10:45;;;;;;;22.17;11.70;;;19.70;99.90;;;;;;5049595;28;20053;-60
2023/06/13 08:13:12;;;;;;;26.90;11.98;;;19.80;99.90;;;;;;5049557;28;20055;-58
2023/06/13 08:15:39;;;;;;;26.23;12.50;;;19.80;99.90;;;;;;5050072;28;20080;-58
2023/06/13 08:18:06;;;;;;;32.00;13.52;;;19.90;99.90;;;;;;5046657;28;20063;-59
2023/06/13 08:20:33;;;;;;;19.02;11.38;;;19.90;99.90;;;;;;5042564;28;20068;-59
2023/06/13 08:23:00;;;;;;;24.88;11.13;;;20.00;99.90;;;;;;5022505;28;20049;-61
2023/06/13 08:25:27;;;;;;;42.97;13.05;;;20.00;99.90;;;;;;5041354;28;20049;-59
2023/06/13 08:27:55;;;;;;;26.30;11.77;;;20.10;99.90;;;;;;5048836;28;20140;-59
2023/06/13 08:30:22;;;;;;;22.45;10.68;;;20.30;99.90;;;;;;5045632;28;20048;-59
2023/06/13 08:32:52;;;;;;;28.95;10.75;;;20.40;99.90;;;;;;5048982;28;20518;-58
2023/06/13 08:35:20;;;;;;;22.50;11.82;;;20.50;99.90;;;;;;5048991;28;20484;-59
2023/06/13 08:37:46;;;;;;;24.70;12.07;;;20.50;99.90;;;;;;5048848;28;20084;-60
2023/06/13 08:40:15;;;;;;;25.10;11.48;;;20.60;99.90;;;;;;5047599;28;20049;-59
2023/06/13 08:42:42;;;;;;;26.25;11.90;;;20.70;99.90;;;;;;5047389;28;20044;-59
2023/06/13 08:45:09;;;;;;;23.30;11.80;;;20.80;99.90;;;;;;5027361;28;20049;-60
2023/06/13 08:47:38;;;;;;;44.28;12.05;;;20.90;99.90;;;;;;5047547;28;20049;-60
2023/06/13 08:50:06;;;;;;;22.40;11.02;;;21.00;99.90;;;;;;5039081;28;20118;-60
2023/06/13 08:52:43;;;;;;;22.65;12.10;;;21.00;99.90;;;;;;5037128;28;20045;-60
2023/06/13 08:55:17;;;;;;;24.15;11.00;;;21.10;99.90;;;;;;5029881;28;20048;-60
2023/06/13 08:57:52;;;;;;;19.52;10.55;;;21.20;99.90;;;;;;5043089;28;20064;-60
2023/06/13 09:00:19;;;;;;;18.85;10.00;;;21.30;99.90;;;;;;5029968;28;20566;-60
2023/06/13 09:02:46;;;;;;;30.55;10.18;;;21.40;99.90;;;;;;5045908;28;20451;-59
2023/06/13 09:05:15;;;;;;;22.63;12.30;;;21.40;99.90;;;;;;5046759;28;20053;-59
2023/06/13 09:07:43;;;;;;;18.90;9.45;;;21.50;99.90;;;;;;5045765;28;20111;-59
2023/06/13 09:10:11;;;;;;;16.73;9.93;;;21.60;99.90;;;;;;5047364;28;20049;-59
2023/06/13 09:12:43;;;;;;;17.38;8.52;;;21.70;99.90;;;;;;5048898;28;20098;-59
2023/06/13 09:15:10;;;;;;;20.30;9.52;;;21.80;99.90;;;;;;5030516;28;20056;-60
2023/06/13 09:17:38;;;;;;;19.83;9.13;;;21.90;99.90;;;;;;5046814;28;20510;-60
2023/06/13 09:20:06;;;;;;;20.08;9.98;;;22.00;99.90;;;;;;5046335;28;20053;-59
2023/06/13 09:22:36;;;;;;;20.08;8.88;;;22.10;99.90;;;;;;5024227;28;20427;-59
2023/06/13 09:25:04;;;;;;;22.60;10.98;;;22.20;99.90;;;;;;5035571;28;20056;-60
2023/06/13 09:27:31;;;;;;;17.02;9.77;;;22.30;99.90;;;;;;5045325;28;20088;-62
2023/06/13 09:30:02;;;;;;;21.52;10.77;;;22.30;99.90;;;;;;5046761;28;20049;-59
2023/06/13 09:32:30;;;;;;;18.05;10.35;;;22.40;99.90;;;;;;5045419;28;20071;-62
2023/06/13 09:34:57;;;;;;;19.73;9.73;;;22.50;99.90;;;;;;5045971;28;20053;-60
2023/06/13 09:37:27;;;;;;;27.60;10.48;;;22.60;99.90;;;;;;5045998;28;20475;-60
2023/06/13 09:39:54;;;;;;;17.33;9.55;;;22.60;99.90;;;;;;5041845;28;20068;-60
2023/06/13 09:42:43;;;;;;;14.52;9.82;;;22.80;99.90;;;;;;5027732;28;20729;-60
2023/06/13 09:45:28;;;;;;;19.77;10.23;;;22.90;99.90;;;;;;5038026;28;20080;-60
2023/06/13 09:47:55;;;;;;;18.88;9.05;;;23.10;99.90;;;;;;5044583;28;20068;-60
2023/06/13 09:50:22;;;;;;;24.08;9.70;;;23.20;99.90;;;;;;5046397;28;20130;-59
2023/06/13 09:52:50;;;;;;;22.20;9.57;;;23.40;99.90;;;;;;5043209;28;20041;-59
2023/06/13 09:55:20;;;;;;;17.48;8.65;;;23.40;99.90;;;;;;5045898;28;20518;-58
2023/06/13 09:57:51;;;;;;;28.08;9.40;;;23.50;99.90;;;;;;5043308;28;20567;-58
2023/06/13 10:00:38;;;;;;;15.98;8.05;;;23.60;99.90;;;;;;5038011;28;20050;-59
2023/06/13 10:03:05;;;;;;;18.05;8.23;;;23.70;99.90;;;;;;5024324;28;20041;-60
2023/06/13 10:05:46;;;;;;;18.50;9.18;;;23.90;99.90;;;;;;5040201;28;20128;-60
2023/06/13 10:08:13;;;;;;;22.70;9.38;;;24.00;99.90;;;;;;5039439;28;20084;-58
2023/06/13 10:10:40;;;;;;;13.00;8.20;;;24.20;99.90;;;;;;5039509;28;20056;-59
2023/06/13 10:13:10;;;;;;;14.55;7.57;;;24.50;99.90;;;;;;5042976;28;20080;-59
2023/06/13 10:15:43;;;;;;;12.77;8.18;;;24.80;99.90;;;;;;5043911;28;20041;-60
2023/06/13 10:18:11;;;;;;;18.08;8.45;;;25.10;99.90;;;;;;5023871;28;20128;-58
2023/06/13 10:20:39;;;;;;;8.68;6.50;;;25.50;99.90;;;;;;5010877;28;20053;-58
2023/06/13 10:23:06;;;;;;;10.50;6.78;;;25.80;99.90;;;;;;5043250;28;20049;-58
2023/06/13 10:25:33;;;;;;;17.40;8.20;;;26.10;99.90;;;;;;5024009;28;20060;-59
2023/06/13 10:28:22;;;;;;;13.20;8.05;;;26.20;99.90;;;;;;5026287;28;20408;-59
2023/06/13 10:30:57;;;;;;;13.38;7.60;;;26.40;99.30;;;;;;5037612;28;20055;-59
2023/06/13 10:33:55;;;;;;;12.32;7.45;;;26.50;97.70;;;;;;5037785;28;20076;-59
2023/06/13 10:36:51;;;;;;;20.13;7.32;;;26.80;97.60;;;;;;5011662;28;20045;-59
2023/06/13 10:39:48;;;;;;;24.85;6.90;;;26.90;98.00;;;;;;4977012;28;20131;-60
2023/06/13 10:42:28;;;;;;;11.45;5.97;;;27.20;96.90;;;;;;5036369;28;20052;-60
2023/06/13 10:45:27;;;;;;;11.85;6.53;;;27.40;95.00;;;;;;5040809;28;20049;-60
2023/06/13 10:47:55;;;;;;;12.43;6.90;;;27.60;94.40;;;;;;4990359;28;20280;-60
2023/06/13 10:50:22;;;;;;;13.32;5.95;;;27.70;96.50;;;;;;5037437;28;20132;-61
2023/06/13 10:52:50;;;;;;;11.00;5.97;;;27.90;95.90;;;;;;5042791;28;20041;-59
2023/06/13 10:55:27;;;;;;;17.90;6.90;;;27.90;95.20;;;;;;5027603;28;20110;-59
2023/06/13 10:57:56;;;;;;;21.88;7.20;;;27.80;92.80;;;;;;5044500;28;20061;-60
2023/06/13 11:00:24;;;;;;;19.08;6.65;;;27.60;93.40;;;;;;5045176;28;20061;-57
2023/06/13 11:03:01;;;;;;;26.92;7.40;;;27.50;93.70;;;;;;5045051;28;20045;-60
2023/06/13 11:05:28;;;;;;;8.65;6.43;;;27.30;91.10;;;;;;5043844;28;20048;-60
2023/06/13 11:08:12;;;;;;;16.48;6.95;;;27.10;92.40;;;;;;5045488;28;20052;-60
2023/06/13 11:10:39;;;;;;;10.15;6.28;;;26.90;90.40;;;;;;5027089;28;20049;-59
2023/06/13 11:13:16;;;;;;;13.65;6.50;;;26.80;92.30;;;;;;5043981;28;20048;-60
2023/06/13 11:15:43;;;;;;;18.95;7.55;;;26.70;90.60;;;;;;5045623;28;20041;-61
2023/06/13 11:18:12;;;;;;;14.55;7.00;;;26.80;91.90;;;;;;5050519;28;20041;-59
2023/06/13 11:20:51;;;;;;;18.33;6.15;;;26.70;90.50;;;;;;5049109;28;20049;-61
2023/06/13 11:23:22;;;;;;;9.55;6.47;;;26.60;88.80;;;;;;5049604;28;20045;-59
2023/06/13 11:25:52;;;;;;;13.93;7.22;;;26.60;89.60;;;;;;5049079;28;20045;-59
2023/06/13 11:28:19;;;;;;;14.70;7.53;;;26.60;88.50;;;;;;5044975;28;20098;-58
2023/06/13 11:30:49;;;;;;;15.18;6.82;;;26.50;89.00;;;;;;5023741;28;20073;-58
2023/06/13 11:33:16;;;;;;;18.08;6.22;;;26.50;88.90;;;;;;5038132;28;20143;-59
2023/06/13 11:35:49;;;;;;;19.15;6.43;;;26.50;89.90;;;;;;5026132;28;20048;-59
2023/06/13 11:38:52;;;;;;;21.92;6.25;;;26.50;88.30;;;;;;5041643;28;20395;-60
2023/06/13 11:41:19;;;;;;;11.82;6.95;;;26.50;86.20;;;;;;5042909;28;20167;-59
2023/06/13 11:43:46;;;;;;;11.63;6.13;;;26.60;87.80;;;;;;5040144;28;20095;-60
2023/06/13 11:46:20;;;;;;;20.73;7.59;;;26.60;88.10;;;;;;4948198;28;10000642;-59
2023/06/13 11:48:56;;;;;;;17.45;6.20;;;26.70;85.60;;;;;;5047254;28;20294;-59
2023/06/13 11:51:25;;;;;;;10.02;6.55;;;26.60;85.50;;;;;;5046742;28;20112;-59
2023/06/13 11:53:53;;;;;;;18.85;7.03;;;26.70;85.40;;;;;;5045537;28;20067;-60
2023/06/13 11:56:22;;;;;;;15.40;7.35;;;26.70;85.50;;;;;;5046736;28;20045;-58
2023/06/13 11:58:49;;;;;;;13.40;6.38;;;26.70;85.50;;;;;;5043845;28;20053;-59
2023/06/13 12:01:17;;;;;;;20.00;7.38;;;26.70;83.10;;;;;;5029031;28;20096;-59
2023/06/13 12:03:45;;;;;;;12.95;7.60;;;26.70;83.80;;;;;;5046601;28;20056;-59
2023/06/13 12:06:12;;;;;;;17.42;6.70;;;26.60;84.50;;;;;;5046981;28;20044;-59
2023/06/13 12:08:47;;;;;;;15.30;7.15;;;26.60;84.50;;;;;;5046643;28;20059;-60
2023/06/13 12:11:18;;;;;;;15.90;7.20;;;26.70;83.50;;;;;;5046188;28;20048;-56
2023/06/13 12:13:56;;;;;;;18.63;7.88;;;26.60;83.00;;;;;;5029785;28;20229;-58
2023/06/13 12:16:32;;;;;;;19.33;7.85;;;26.50;84.00;;;;;;5046648;28;20458;-60
2023/06/13 12:19:00;;;;;;;18.73;7.68;;;26.60;83.20;;;;;;5045270;28;20189;-60
2023/06/13 12:21:31;;;;;;;16.60;8.60;;;26.70;84.00;;;;;;5046007;28;20049;-59
2023/06/13 12:24:00;;;;;;;21.15;7.43;;;26.70;82.60;;;;;;5045696;28;20061;-60
2023/06/13 12:26:30;;;;;;;21.35;8.48;;;26.90;84.30;;;;;;5045897;28;20045;-60
2023/06/13 12:29:06;;;;;;;10.85;7.22;;;26.90;83.90;;;;;;5015086;28;21461;-58
2023/06/13 12:31:41;;;;;;;21.60;7.72;;;27.00;82.40;;;;;;5035534;28;20561;-59
2023/06/13 12:34:16;;;;;;;16.10;7.07;;;27.00;79.30;;;;;;5036643;28;20052;-60
2023/06/13 12:36:45;;;;;;;12.90;6.65;;;26.90;78.40;;;;;;5039286;28;20107;-59
2023/06/13 12:39:16;;;;;;;22.55;6.32;;;26.90;80.10;;;;;;5037704;28;20045;-59
2023/06/13 12:41:48;;;;;;;17.45;6.75;;;26.90;81.30;;;;;;5034879;28;20049;-59